sensor_id;sensor_type;location;lat;lon;timestamp;P1;durP1;ratioP1;P2;durP2;ratioP2
50010;SDS011;35899;50.352;19.390;2022-11-20T00:01:12;91.03;;;36.20;;
50010;SDS011;35899;50.352;19.390;2022-11-20T00:03:43;92.23;;;36.00;;
50010;SDS011;35899;50.352;19.390;2022-11-20T00:06:11;149.07;;;50.77;;
50010;SDS011;35899;50.352;19.390;2022-11-20T00:08:40;101.83;;;38.10;;
50010;SDS011;35899;50.352;19.390;2022-11-20T00:11:08;140.55;;;49.85;;
50010;SDS011;35899;50.352;19.390;2022-11-20T00:13:38;118.43;;;44.10;;
50010;SDS011;35899;50.352;19.390;2022-11-20T00:16:05;104.30;;;40.60;;
50010;SDS011;35899;50.352;19.390;2022-11-20T00:18:34;97.30;;;37.00;;
50010;SDS011;35899;50.352;19.390;2022-11-20T00:21:02;94.20;;;35.67;;
50010;SDS011;35899;50.352;19.390;2022-11-20T00:23:32;89.07;;;34.63;;
50010;SDS011;35899;50.352;19.390;2022-11-20T00:26:08;86.50;;;33.20;;
50010;SDS011;35899;50.352;19.390;2022-11-20T00:28:33;84.63;;;34.57;;
50010;SDS011;35899;50.352;19.390;2022-11-20T00:31:06;88.67;;;33.33;;
50010;SDS011;35899;50.352;19.390;2022-11-20T00:33:37;90.47;;;33.33;;
50010;SDS011;35899;50.352;19.390;2022-11-20T00:36:09;78.92;;;31.20;;
50010;SDS011;35899;50.352;19.390;2022-11-20T00:38:35;80.50;;;30.77;;
50010;SDS011;35899;50.352;19.390;2022-11-20T00:41:03;83.87;;;32.63;;
50010;SDS011;35899;50.352;19.390;2022-11-20T00:43:32;82.10;;;31.90;;
50010;SDS011;35899;50.352;19.390;2022-11-20T00:45:59;83.03;;;30.70;;
50010;SDS011;35899;50.352;19.390;2022-11-20T00:48:29;86.27;;;32.20;;
50010;SDS011;35899;50.352;19.390;2022-11-20T00:50:55;85.47;;;30.80;;
50010;SDS011;35899;50.352;19.390;2022-11-20T00:53:22;73.50;;;29.10;;
50010;SDS011;35899;50.352;19.390;2022-11-20T00:56:00;69.53;;;26.00;;
50010;SDS011;35899;50.352;19.390;2022-11-20T00:58:28;81.33;;;30.43;;
50010;SDS011;35899;50.352;19.390;2022-11-20T01:03:47;79.87;;;29.52;;
50010;SDS011;35899;50.352;19.390;2022-11-20T01:06:15;83.27;;;31.50;;
50010;SDS011;35899;50.352;19.390;2022-11-20T01:08:47;95.45;;;33.67;;
50010;SDS011;35899;50.352;19.390;2022-11-20T01:11:16;109.10;;;38.27;;
50010;SDS011;35899;50.352;19.390;2022-11-20T01:13:46;154.93;;;47.43;;
50010;SDS011;35899;50.352;19.390;2022-11-20T01:16:19;124.17;;;41.70;;
50010;SDS011;35899;50.352;19.390;2022-11-20T01:18:51;115.13;;;37.93;;
50010;SDS011;35899;50.352;19.390;2022-11-20T01:21:25;127.53;;;40.40;;
50010;SDS011;35899;50.352;19.390;2022-11-20T01:23:58;119.53;;;41.47;;
50010;SDS011;35899;50.352;19.390;2022-11-20T01:26:27;91.57;;;34.80;;
50010;SDS011;35899;50.352;19.390;2022-11-20T01:28:56;93.03;;;33.10;;
50010;SDS011;35899;50.352;19.390;2022-11-20T01:31:25;85.13;;;31.37;;
50010;SDS011;35899;50.352;19.390;2022-11-20T01:36:27;85.33;;;31.77;;
50010;SDS011;35899;50.352;19.390;2022-11-20T01:38:56;92.60;;;32.97;;
50010;SDS011;35899;50.352;19.390;2022-11-20T01:41:25;84.33;;;31.33;;
50010;SDS011;35899;50.352;19.390;2022-11-20T01:43:54;121.53;;;39.90;;
50010;SDS011;35899;50.352;19.390;2022-11-20T01:46:21;115.73;;;38.13;;
50010;SDS011;35899;50.352;19.390;2022-11-20T01:48:49;83.87;;;28.77;;
50010;SDS011;35899;50.352;19.390;2022-11-20T01:54:03;76.43;;;27.40;;
50010;SDS011;35899;50.352;19.390;2022-11-20T01:56:39;81.83;;;28.70;;
50010;SDS011;35899;50.352;19.390;2022-11-20T01:59:05;74.70;;;28.13;;
50010;SDS011;35899;50.352;19.390;2022-11-20T02:01:34;81.13;;;29.20;;
50010;SDS011;35899;50.352;19.390;2022-11-20T02:04:01;80.30;;;28.87;;
50010;SDS011;35899;50.352;19.390;2022-11-20T02:09:21;71.37;;;27.00;;
50010;SDS011;35899;50.352;19.390;2022-11-20T02:11:47;70.40;;;27.77;;
50010;SDS011;35899;50.352;19.390;2022-11-20T02:14:15;71.13;;;28.07;;
50010;SDS011;35899;50.352;19.390;2022-11-20T02:16:46;67.07;;;26.20;;
50010;SDS011;35899;50.352;19.390;2022-11-20T02:19:24;69.17;;;24.80;;
50010;SDS011;35899;50.352;19.390;2022-11-20T02:24:44;78.03;;;28.73;;
50010;SDS011;35899;50.352;19.390;2022-11-20T02:27:13;89.03;;;30.00;;
50010;SDS011;35899;50.352;19.390;2022-11-20T02:29:51;140.27;;;42.90;;
50010;SDS011;35899;50.352;19.390;2022-11-20T02:32:25;149.47;;;44.33;;
50010;SDS011;35899;50.352;19.390;2022-11-20T02:34:57;113.13;;;36.07;;
50010;SDS011;35899;50.352;19.390;2022-11-20T02:37:29;85.83;;;30.90;;
50010;SDS011;35899;50.352;19.390;2022-11-20T02:39:58;71.97;;;24.63;;
50010;SDS011;35899;50.352;19.390;2022-11-20T02:42:24;72.27;;;26.20;;
50010;SDS011;35899;50.352;19.390;2022-11-20T02:44:51;80.63;;;28.70;;
50010;SDS011;35899;50.352;19.390;2022-11-20T02:47:17;92.20;;;30.00;;
50010;SDS011;35899;50.352;19.390;2022-11-20T02:49:43;133.33;;;40.50;;
50010;SDS011;35899;50.352;19.390;2022-11-20T02:52:10;167.60;;;49.37;;
50010;SDS011;35899;50.352;19.390;2022-11-20T02:54:36;219.53;;;65.43;;
50010;SDS011;35899;50.352;19.390;2022-11-20T02:57:03;221.67;;;63.73;;
50010;SDS011;35899;50.352;19.390;2022-11-20T02:59:29;193.23;;;55.13;;
50010;SDS011;35899;50.352;19.390;2022-11-20T03:01:56;123.77;;;37.73;;
50010;SDS011;35899;50.352;19.390;2022-11-20T03:04:22;107.57;;;35.37;;
50010;SDS011;35899;50.352;19.390;2022-11-20T03:06:48;99.33;;;33.70;;
50010;SDS011;35899;50.352;19.390;2022-11-20T03:09:14;104.43;;;36.23;;
50010;SDS011;35899;50.352;19.390;2022-11-20T03:11:41;109.57;;;36.17;;
50010;SDS011;35899;50.352;19.390;2022-11-20T03:14:07;88.50;;;31.17;;
50010;SDS011;35899;50.352;19.390;2022-11-20T03:16:33;90.03;;;30.67;;
50010;SDS011;35899;50.352;19.390;2022-11-20T03:19:00;97.47;;;34.97;;
50010;SDS011;35899;50.352;19.390;2022-11-20T03:21:27;100.07;;;33.67;;
50010;SDS011;35899;50.352;19.390;2022-11-20T03:23:53;116.13;;;38.33;;
50010;SDS011;35899;50.352;19.390;2022-11-20T03:26:22;133.63;;;44.37;;
50010;SDS011;35899;50.352;19.390;2022-11-20T03:28:51;163.20;;;49.20;;
50010;SDS011;35899;50.352;19.390;2022-11-20T03:31:21;262.43;;;69.00;;
50010;SDS011;35899;50.352;19.390;2022-11-20T03:33:50;202.57;;;55.33;;
50010;SDS011;35899;50.352;19.390;2022-11-20T03:36:17;202.93;;;56.47;;
50010;SDS011;35899;50.352;19.390;2022-11-20T03:38:45;196.93;;;54.57;;
50010;SDS011;35899;50.352;19.390;2022-11-20T03:41:18;194.97;;;55.33;;
50010;SDS011;35899;50.352;19.390;2022-11-20T03:43:50;188.87;;;54.13;;
50010;SDS011;35899;50.352;19.390;2022-11-20T03:46:18;137.03;;;44.30;;
50010;SDS011;35899;50.352;19.390;2022-11-20T03:48:44;143.60;;;44.60;;
50010;SDS011;35899;50.352;19.390;2022-11-20T03:51:12;141.40;;;46.23;;
50010;SDS011;35899;50.352;19.390;2022-11-20T03:53:51;166.40;;;48.63;;
50010;SDS011;35899;50.352;19.390;2022-11-20T03:56:26;233.50;;;67.77;;
50010;SDS011;35899;50.352;19.390;2022-11-20T03:58:51;170.27;;;49.10;;
50010;SDS011;35899;50.352;19.390;2022-11-20T04:01:18;204.73;;;57.20;;
50010;SDS011;35899;50.352;19.390;2022-11-20T04:03:51;254.93;;;67.03;;
50010;SDS011;35899;50.352;19.390;2022-11-20T04:06:20;118.70;;;41.47;;
50010;SDS011;35899;50.352;19.390;2022-11-20T04:08:55;106.83;;;36.60;;
50010;SDS011;35899;50.352;19.390;2022-11-20T04:11:24;111.30;;;38.50;;
50010;SDS011;35899;50.352;19.390;2022-11-20T04:13:58;99.50;;;35.23;;
50010;SDS011;35899;50.352;19.390;2022-11-20T04:16:24;99.57;;;36.40;;
50010;SDS011;35899;50.352;19.390;2022-11-20T04:18:52;98.90;;;34.53;;
50010;SDS011;35899;50.352;19.390;2022-11-20T04:21:23;109.27;;;36.77;;
50010;SDS011;35899;50.352;19.390;2022-11-20T04:23:51;96.27;;;35.37;;
50010;SDS011;35899;50.352;19.390;2022-11-20T04:26:18;100.07;;;34.80;;
50010;SDS011;35899;50.352;19.390;2022-11-20T04:28:46;98.57;;;33.77;;
50010;SDS011;35899;50.352;19.390;2022-11-20T04:31:13;101.60;;;36.27;;
50010;SDS011;35899;50.352;19.390;2022-11-20T04:33:42;85.40;;;31.47;;
50010;SDS011;35899;50.352;19.390;2022-11-20T04:36:15;98.90;;;33.67;;
50010;SDS011;35899;50.352;19.390;2022-11-20T04:38:44;86.63;;;31.50;;
50010;SDS011;35899;50.352;19.390;2022-11-20T04:41:15;83.20;;;30.57;;
50010;SDS011;35899;50.352;19.390;2022-11-20T04:43:51;89.57;;;31.57;;
50010;SDS011;35899;50.352;19.390;2022-11-20T04:46:17;103.05;;;34.65;;
50010;SDS011;35899;50.352;19.390;2022-11-20T04:48:44;87.63;;;30.80;;
50010;SDS011;35899;50.352;19.390;2022-11-20T04:51:12;91.57;;;31.67;;
50010;SDS011;35899;50.352;19.390;2022-11-20T04:53:39;87.83;;;31.87;;
50010;SDS011;35899;50.352;19.390;2022-11-20T04:56:06;78.40;;;27.50;;
50010;SDS011;35899;50.352;19.390;2022-11-20T04:58:34;77.30;;;25.70;;
50010;SDS011;35899;50.352;19.390;2022-11-20T05:01:06;87.50;;;31.60;;
50010;SDS011;35899;50.352;19.390;2022-11-20T05:03:39;86.43;;;30.00;;
50010;SDS011;35899;50.352;19.390;2022-11-20T05:06:06;95.13;;;32.47;;
50010;SDS011;35899;50.352;19.390;2022-11-20T05:08:34;90.53;;;32.10;;
50010;SDS011;35899;50.352;19.390;2022-11-20T05:11:01;86.70;;;30.97;;
50010;SDS011;35899;50.352;19.390;2022-11-20T05:13:30;103.20;;;32.97;;
50010;SDS011;35899;50.352;19.390;2022-11-20T05:16:03;95.73;;;34.70;;
50010;SDS011;35899;50.352;19.390;2022-11-20T05:18:34;101.83;;;32.97;;
50010;SDS011;35899;50.352;19.390;2022-11-20T05:21:01;105.60;;;37.10;;
50010;SDS011;35899;50.352;19.390;2022-11-20T05:23:29;85.00;;;30.47;;
50010;SDS011;35899;50.352;19.390;2022-11-20T05:25:57;91.17;;;32.47;;
50010;SDS011;35899;50.352;19.390;2022-11-20T05:28:24;89.30;;;32.47;;
50010;SDS011;35899;50.352;19.390;2022-11-20T05:30:51;92.27;;;31.63;;
50010;SDS011;35899;50.352;19.390;2022-11-20T05:33:18;84.60;;;29.37;;
50010;SDS011;35899;50.352;19.390;2022-11-20T05:35:44;89.80;;;29.30;;
50010;SDS011;35899;50.352;19.390;2022-11-20T05:38:11;92.43;;;31.27;;
50010;SDS011;35899;50.352;19.390;2022-11-20T05:40:37;89.47;;;32.30;;
50010;SDS011;35899;50.352;19.390;2022-11-20T05:43:04;91.03;;;31.87;;
50010;SDS011;35899;50.352;19.390;2022-11-20T05:45:30;92.47;;;33.30;;
50010;SDS011;35899;50.352;19.390;2022-11-20T05:48:00;95.77;;;32.17;;
50010;SDS011;35899;50.352;19.390;2022-11-20T05:50:27;85.83;;;31.63;;
50010;SDS011;35899;50.352;19.390;2022-11-20T05:52:53;82.20;;;30.00;;
50010;SDS011;35899;50.352;19.390;2022-11-20T05:55:21;96.97;;;34.13;;
50010;SDS011;35899;50.352;19.390;2022-11-20T05:57:47;103.10;;;34.83;;
50010;SDS011;35899;50.352;19.390;2022-11-20T06:00:14;92.10;;;32.70;;
50010;SDS011;35899;50.352;19.390;2022-11-20T06:02:41;81.33;;;25.83;;
50010;SDS011;35899;50.352;19.390;2022-11-20T06:05:07;86.30;;;30.17;;
50010;SDS011;35899;50.352;19.390;2022-11-20T06:07:34;92.07;;;33.40;;
50010;SDS011;35899;50.352;19.390;2022-11-20T06:10:01;89.40;;;33.67;;
50010;SDS011;35899;50.352;19.390;2022-11-20T06:12:27;79.10;;;25.53;;
50010;SDS011;35899;50.352;19.390;2022-11-20T06:14:53;75.07;;;27.13;;
50010;SDS011;35899;50.352;19.390;2022-11-20T06:17:20;91.00;;;31.63;;
50010;SDS011;35899;50.352;19.390;2022-11-20T06:19:46;92.70;;;33.20;;
50010;SDS011;35899;50.352;19.390;2022-11-20T06:22:13;96.43;;;33.60;;
50010;SDS011;35899;50.352;19.390;2022-11-20T06:24:39;92.90;;;32.00;;
50010;SDS011;35899;50.352;19.390;2022-11-20T06:27:06;81.57;;;31.10;;
50010;SDS011;35899;50.352;19.390;2022-11-20T06:29:32;90.97;;;32.90;;
50010;SDS011;35899;50.352;19.390;2022-11-20T06:31:58;88.53;;;31.13;;
50010;SDS011;35899;50.352;19.390;2022-11-20T06:34:25;82.63;;;30.20;;
50010;SDS011;35899;50.352;19.390;2022-11-20T06:36:51;76.33;;;27.03;;
50010;SDS011;35899;50.352;19.390;2022-11-20T06:39:18;74.23;;;28.83;;
50010;SDS011;35899;50.352;19.390;2022-11-20T06:41:44;89.30;;;31.23;;
50010;SDS011;35899;50.352;19.390;2022-11-20T06:44:10;75.40;;;26.60;;
50010;SDS011;35899;50.352;19.390;2022-11-20T06:46:37;76.90;;;26.52;;
50010;SDS011;35899;50.352;19.390;2022-11-20T06:49:03;74.57;;;27.27;;
50010;SDS011;35899;50.352;19.390;2022-11-20T06:51:29;79.97;;;27.63;;
50010;SDS011;35899;50.352;19.390;2022-11-20T06:53:56;85.73;;;30.87;;
50010;SDS011;35899;50.352;19.390;2022-11-20T06:56:22;88.70;;;31.57;;
50010;SDS011;35899;50.352;19.390;2022-11-20T06:58:48;79.57;;;30.07;;
50010;SDS011;35899;50.352;19.390;2022-11-20T07:01:15;75.50;;;30.03;;
50010;SDS011;35899;50.352;19.390;2022-11-20T07:03:42;82.97;;;31.87;;
50010;SDS011;35899;50.352;19.390;2022-11-20T07:06:09;86.10;;;32.13;;
50010;SDS011;35899;50.352;19.390;2022-11-20T07:08:36;95.07;;;35.67;;
50010;SDS011;35899;50.352;19.390;2022-11-20T07:11:04;77.73;;;28.00;;
50010;SDS011;35899;50.352;19.390;2022-11-20T07:13:31;84.53;;;31.33;;
50010;SDS011;35899;50.352;19.390;2022-11-20T07:16:00;82.60;;;31.17;;
50010;SDS011;35899;50.352;19.390;2022-11-20T07:18:28;97.47;;;37.03;;
50010;SDS011;35899;50.352;19.390;2022-11-20T07:20:55;101.63;;;39.30;;
50010;SDS011;35899;50.352;19.390;2022-11-20T07:23:22;90.83;;;36.30;;
50010;SDS011;35899;50.352;19.390;2022-11-20T07:25:48;97.13;;;37.37;;
50010;SDS011;35899;50.352;19.390;2022-11-20T07:28:14;91.93;;;35.07;;
50010;SDS011;35899;50.352;19.390;2022-11-20T07:30:41;77.70;;;28.50;;
50010;SDS011;35899;50.352;19.390;2022-11-20T07:33:07;87.93;;;33.93;;
50010;SDS011;35899;50.352;19.390;2022-11-20T07:35:33;75.37;;;28.37;;
50010;SDS011;35899;50.352;19.390;2022-11-20T07:38:00;85.87;;;33.87;;
50010;SDS011;35899;50.352;19.390;2022-11-20T07:40:26;87.87;;;33.03;;
50010;SDS011;35899;50.352;19.390;2022-11-20T07:42:54;71.87;;;27.93;;
50010;SDS011;35899;50.352;19.390;2022-11-20T07:45:22;94.43;;;36.13;;
50010;SDS011;35899;50.352;19.390;2022-11-20T07:47:50;93.52;;;35.52;;
50010;SDS011;35899;50.352;19.390;2022-11-20T07:50:16;106.87;;;40.00;;
50010;SDS011;35899;50.352;19.390;2022-11-20T07:52:44;99.85;;;38.08;;
50010;SDS011;35899;50.352;19.390;2022-11-20T07:55:11;96.47;;;36.97;;
50010;SDS011;35899;50.352;19.390;2022-11-20T07:57:37;89.73;;;36.20;;
50010;SDS011;35899;50.352;19.390;2022-11-20T08:00:04;91.83;;;37.13;;
50010;SDS011;35899;50.352;19.390;2022-11-20T08:02:38;91.20;;;36.77;;
50010;SDS011;35899;50.352;19.390;2022-11-20T08:05:06;94.73;;;36.23;;
50010;SDS011;35899;50.352;19.390;2022-11-20T08:07:37;104.15;;;40.65;;
50010;SDS011;35899;50.352;19.390;2022-11-20T08:10:09;102.80;;;37.50;;
50010;SDS011;35899;50.352;19.390;2022-11-20T08:12:44;110.88;;;43.65;;
50010;SDS011;35899;50.352;19.390;2022-11-20T08:15:15;118.20;;;46.02;;
50010;SDS011;35899;50.352;19.390;2022-11-20T08:17:42;103.83;;;41.60;;
50010;SDS011;35899;50.352;19.390;2022-11-20T08:20:08;118.17;;;46.63;;
50010;SDS011;35899;50.352;19.390;2022-11-20T08:22:35;128.23;;;49.40;;
50010;SDS011;35899;50.352;19.390;2022-11-20T08:25:01;115.88;;;45.33;;
50010;SDS011;35899;50.352;19.390;2022-11-20T08:27:28;114.35;;;43.55;;
50010;SDS011;35899;50.352;19.390;2022-11-20T08:29:55;109.10;;;43.33;;
50010;SDS011;35899;50.352;19.390;2022-11-20T08:32:22;103.35;;;42.62;;
50010;SDS011;35899;50.352;19.390;2022-11-20T08:34:48;97.47;;;40.40;;
50010;SDS011;35899;50.352;19.390;2022-11-20T08:37:14;106.92;;;41.75;;
50010;SDS011;35899;50.352;19.390;2022-11-20T08:39:41;107.07;;;42.93;;
50010;SDS011;35899;50.352;19.390;2022-11-20T08:42:07;104.72;;;42.58;;
50010;SDS011;35899;50.352;19.390;2022-11-20T08:44:34;105.25;;;42.48;;
50010;SDS011;35899;50.352;19.390;2022-11-20T08:47:00;101.15;;;42.88;;
50010;SDS011;35899;50.352;19.390;2022-11-20T08:49:26;106.75;;;46.23;;
50010;SDS011;35899;50.352;19.390;2022-11-20T08:51:53;112.32;;;45.80;;
50010;SDS011;35899;50.352;19.390;2022-11-20T08:54:19;101.92;;;42.93;;
50010;SDS011;35899;50.352;19.390;2022-11-20T08:56:46;97.65;;;41.73;;
50010;SDS011;35899;50.352;19.390;2022-11-20T08:59:12;97.57;;;42.62;;
50010;SDS011;35899;50.352;19.390;2022-11-20T09:01:38;97.12;;;41.92;;
50010;SDS011;35899;50.352;19.390;2022-11-20T09:04:05;89.05;;;38.67;;
50010;SDS011;35899;50.352;19.390;2022-11-20T09:06:31;95.10;;;40.30;;
50010;SDS011;35899;50.352;19.390;2022-11-20T09:08:58;88.00;;;38.98;;
50010;SDS011;35899;50.352;19.390;2022-11-20T09:11:24;88.30;;;41.02;;
50010;SDS011;35899;50.352;19.390;2022-11-20T09:13:51;102.15;;;42.13;;
50010;SDS011;35899;50.352;19.390;2022-11-20T09:16:17;133.12;;;51.15;;
50010;SDS011;35899;50.352;19.390;2022-11-20T09:18:43;100.05;;;40.88;;
50010;SDS011;35899;50.352;19.390;2022-11-20T09:21:11;100.90;;;40.75;;
50010;SDS011;35899;50.352;19.390;2022-11-20T09:23:38;121.22;;;48.28;;
50010;SDS011;35899;50.352;19.390;2022-11-20T09:26:06;98.78;;;41.70;;
50010;SDS011;35899;50.352;19.390;2022-11-20T09:28:36;94.92;;;40.48;;
50010;SDS011;35899;50.352;19.390;2022-11-20T09:31:06;111.47;;;41.50;;
50010;SDS011;35899;50.352;19.390;2022-11-20T09:33:34;97.70;;;39.38;;
50010;SDS011;35899;50.352;19.390;2022-11-20T09:36:01;91.60;;;40.00;;
50010;SDS011;35899;50.352;19.390;2022-11-20T09:38:28;100.22;;;43.33;;
50010;SDS011;35899;50.352;19.390;2022-11-20T09:40:56;81.15;;;35.28;;
50010;SDS011;35899;50.352;19.390;2022-11-20T09:54:50;86.32;;;37.80;;
50010;SDS011;35899;50.352;19.390;2022-11-20T09:57:28;85.50;;;39.40;;
50010;SDS011;35899;50.352;19.390;2022-11-20T10:00:00;82.78;;;35.88;;
50010;SDS011;35899;50.352;19.390;2022-11-20T10:02:43;73.05;;;33.25;;
50010;SDS011;35899;50.352;19.390;2022-11-20T10:08:36;76.75;;;33.67;;
50010;SDS011;35899;50.352;19.390;2022-11-20T10:13:53;72.47;;;34.48;;
50010;SDS011;35899;50.352;19.390;2022-11-20T10:17:12;104.43;;;40.23;;
50010;SDS011;35899;50.352;19.390;2022-11-20T10:25:13;58.48;;;27.32;;
50010;SDS011;35899;50.352;19.390;2022-11-20T10:30:43;57.08;;;26.35;;
50010;SDS011;35899;50.352;19.390;2022-11-20T10:38:53;61.33;;;28.92;;
50010;SDS011;35899;50.352;19.390;2022-11-20T10:41:29;87.92;;;38.20;;
50010;SDS011;35899;50.352;19.390;2022-11-20T10:44:20;80.72;;;35.92;;
50010;SDS011;35899;50.352;19.390;2022-11-20T10:46:49;90.97;;;38.08;;
50010;SDS011;35899;50.352;19.390;2022-11-20T10:49:16;58.60;;;28.67;;
50010;SDS011;35899;50.352;19.390;2022-11-20T11:00:30;110.05;;;38.85;;
50010;SDS011;35899;50.352;19.390;2022-11-20T11:02:59;55.08;;;28.77;;
50010;SDS011;35899;50.352;19.390;2022-11-20T11:05:42;50.88;;;26.05;;
50010;SDS011;35899;50.352;19.390;2022-11-20T11:08:32;52.08;;;27.40;;
50010;SDS011;35899;50.352;19.390;2022-11-20T11:13:40;46.30;;;22.37;;
50010;SDS011;35899;50.352;19.390;2022-11-20T11:16:16;46.48;;;22.98;;
50010;SDS011;35899;50.352;19.390;2022-11-20T11:18:43;49.13;;;23.73;;
50010;SDS011;35899;50.352;19.390;2022-11-20T11:21:10;43.75;;;23.55;;
50010;SDS011;35899;50.352;19.390;2022-11-20T11:23:41;63.30;;;34.30;;
50010;SDS011;35899;50.352;19.390;2022-11-20T11:26:19;51.48;;;25.50;;
50010;SDS011;35899;50.352;19.390;2022-11-20T11:31:25;73.35;;;30.40;;
50010;SDS011;35899;50.352;19.390;2022-11-20T11:34:04;56.13;;;25.35;;
50010;SDS011;35899;50.352;19.390;2022-11-20T11:36:34;48.10;;;24.95;;
50010;SDS011;35899;50.352;19.390;2022-11-20T11:39:02;42.80;;;21.57;;
50010;SDS011;35899;50.352;19.390;2022-11-20T11:41:32;70.40;;;30.55;;
50010;SDS011;35899;50.352;19.390;2022-11-20T11:44:04;49.10;;;21.73;;
50010;SDS011;35899;50.352;19.390;2022-11-20T11:46:54;88.95;;;32.25;;
50010;SDS011;35899;50.352;19.390;2022-11-20T11:49:19;57.50;;;24.65;;
50010;SDS011;35899;50.352;19.390;2022-11-20T11:52:03;36.90;;;18.48;;
50010;SDS011;35899;50.352;19.390;2022-11-20T11:55:02;38.40;;;19.52;;
50010;SDS011;35899;50.352;19.390;2022-11-20T12:00:17;71.90;;;27.07;;
50010;SDS011;35899;50.352;19.390;2022-11-20T12:05:38;97.22;;;28.92;;
50010;SDS011;35899;50.352;19.390;2022-11-20T12:08:23;45.67;;;21.07;;
50010;SDS011;35899;50.352;19.390;2022-11-20T12:11:11;43.17;;;19.15;;
50010;SDS011;35899;50.352;19.390;2022-11-20T12:16:32;177.05;;;79.03;;
50010;SDS011;35899;50.352;19.390;2022-11-20T12:19:01;69.65;;;33.65;;
50010;SDS011;35899;50.352;19.390;2022-11-20T12:24:20;48.30;;;22.95;;
50010;SDS011;35899;50.352;19.390;2022-11-20T12:30:20;74.75;;;26.73;;
50010;SDS011;35899;50.352;19.390;2022-11-20T12:32:54;53.55;;;22.62;;
50010;SDS011;35899;50.352;19.390;2022-11-20T12:35:38;63.17;;;25.82;;
50010;SDS011;35899;50.352;19.390;2022-11-20T12:46:55;74.77;;;26.68;;
50010;SDS011;35899;50.352;19.390;2022-11-20T12:49:49;91.10;;;32.40;;
50010;SDS011;35899;50.352;19.390;2022-11-20T12:52:26;60.80;;;25.60;;
50010;SDS011;35899;50.352;19.390;2022-11-20T12:55:31;43.68;;;21.27;;
50010;SDS011;35899;50.352;19.390;2022-11-20T13:01:20;60.63;;;26.52;;
50010;SDS011;35899;50.352;19.390;2022-11-20T13:04:00;42.05;;;20.02;;
50010;SDS011;35899;50.352;19.390;2022-11-20T13:06:48;42.03;;;20.17;;
50010;SDS011;35899;50.352;19.390;2022-11-20T13:09:17;50.30;;;23.45;;
50010;SDS011;35899;50.352;19.390;2022-11-20T13:14:40;43.90;;;21.65;;
50010;SDS011;35899;50.352;19.390;2022-11-20T13:20:20;47.40;;;22.02;;
50010;SDS011;35899;50.352;19.390;2022-11-20T13:22:54;43.85;;;21.27;;
50010;SDS011;35899;50.352;19.390;2022-11-20T13:25:36;98.35;;;35.65;;
50010;SDS011;35899;50.352;19.390;2022-11-20T13:28:26;72.25;;;30.77;;
50010;SDS011;35899;50.352;19.390;2022-11-20T13:30:50;155.90;;;57.65;;
50010;SDS011;35899;50.352;19.390;2022-11-20T13:33:34;211.22;;;75.28;;
50010;SDS011;35899;50.352;19.390;2022-11-20T13:36:07;87.12;;;34.43;;
50010;SDS011;35899;50.352;19.390;2022-11-20T13:38:50;60.05;;;24.90;;
50010;SDS011;35899;50.352;19.390;2022-11-20T13:44:23;120.02;;;48.80;;
50010;SDS011;35899;50.352;19.390;2022-11-20T13:46:57;54.33;;;26.42;;
50010;SDS011;35899;50.352;19.390;2022-11-20T13:52:23;63.58;;;29.27;;
50010;SDS011;35899;50.352;19.390;2022-11-20T14:00:43;48.38;;;23.60;;
50010;SDS011;35899;50.352;19.390;2022-11-20T14:03:24;60.15;;;27.70;;
50010;SDS011;35899;50.352;19.390;2022-11-20T14:05:51;67.32;;;30.12;;
50010;SDS011;35899;50.352;19.390;2022-11-20T14:08:25;45.83;;;22.32;;
50010;SDS011;35899;50.352;19.390;2022-11-20T14:11:03;54.38;;;25.15;;
50010;SDS011;35899;50.352;19.390;2022-11-20T14:13:51;94.15;;;36.33;;
50010;SDS011;35899;50.352;19.390;2022-11-20T14:16:25;202.55;;;57.65;;
50010;SDS011;35899;50.352;19.390;2022-11-20T14:18:54;95.30;;;36.03;;
50010;SDS011;35899;50.352;19.390;2022-11-20T14:21:27;102.17;;;35.70;;
50010;SDS011;35899;50.352;19.390;2022-11-20T14:23:52;80.25;;;31.87;;
50010;SDS011;35899;50.352;19.390;2022-11-20T14:26:32;92.45;;;34.25;;
50010;SDS011;35899;50.352;19.390;2022-11-20T14:28:59;111.62;;;42.08;;
50010;SDS011;35899;50.352;19.390;2022-11-20T14:31:26;124.78;;;42.90;;
50010;SDS011;35899;50.352;19.390;2022-11-20T14:33:53;100.18;;;39.38;;
50010;SDS011;35899;50.352;19.390;2022-11-20T14:36:22;111.25;;;40.03;;
50010;SDS011;35899;50.352;19.390;2022-11-20T14:38:51;193.37;;;61.55;;
50010;SDS011;35899;50.352;19.390;2022-11-20T14:41:23;142.22;;;47.55;;
50010;SDS011;35899;50.352;19.390;2022-11-20T14:43:56;114.35;;;42.90;;
50010;SDS011;35899;50.352;19.390;2022-11-20T14:46:24;114.42;;;44.35;;
50010;SDS011;35899;50.352;19.390;2022-11-20T14:48:54;97.97;;;39.18;;
50010;SDS011;35899;50.352;19.390;2022-11-20T14:51:33;82.70;;;33.08;;
50010;SDS011;35899;50.352;19.390;2022-11-20T14:56:55;89.35;;;35.73;;
50010;SDS011;35899;50.352;19.390;2022-11-20T14:59:25;81.08;;;34.23;;
50010;SDS011;35899;50.352;19.390;2022-11-20T15:01:57;85.42;;;34.58;;
50010;SDS011;35899;50.352;19.390;2022-11-20T15:04:30;94.58;;;37.25;;
50010;SDS011;35899;50.352;19.390;2022-11-20T15:06:57;99.47;;;39.50;;
50010;SDS011;35899;50.352;19.390;2022-11-20T15:09:25;94.25;;;39.05;;
50010;SDS011;35899;50.352;19.390;2022-11-20T15:14:23;96.37;;;42.80;;
50010;SDS011;35899;50.352;19.390;2022-11-20T15:16:51;176.63;;;67.72;;
50010;SDS011;35899;50.352;19.390;2022-11-20T15:19:23;95.42;;;41.77;;
50010;SDS011;35899;50.352;19.390;2022-11-20T15:21:51;92.47;;;40.83;;
50010;SDS011;35899;50.352;19.390;2022-11-20T15:24:18;102.53;;;42.85;;
50010;SDS011;35899;50.352;19.390;2022-11-20T15:26:45;86.22;;;37.00;;
50010;SDS011;35899;50.352;19.390;2022-11-20T15:29:12;92.95;;;40.03;;
50010;SDS011;35899;50.352;19.390;2022-11-20T15:31:41;83.70;;;36.77;;
50010;SDS011;35899;50.352;19.390;2022-11-20T15:34:13;84.37;;;34.95;;
50010;SDS011;35899;50.352;19.390;2022-11-20T15:36:41;86.47;;;36.65;;
50010;SDS011;35899;50.352;19.390;2022-11-20T15:39:08;107.92;;;46.90;;
50010;SDS011;35899;50.352;19.390;2022-11-20T15:41:35;105.50;;;44.90;;
50010;SDS011;35899;50.352;19.390;2022-11-20T15:44:03;95.85;;;43.45;;
50010;SDS011;35899;50.352;19.390;2022-11-20T15:46:31;99.07;;;41.98;;
50010;SDS011;35899;50.352;19.390;2022-11-20T15:49:02;113.88;;;46.60;;
50010;SDS011;35899;50.352;19.390;2022-11-20T15:51:30;108.78;;;47.20;;
50010;SDS011;35899;50.352;19.390;2022-11-20T15:54:00;107.52;;;46.18;;
50010;SDS011;35899;50.352;19.390;2022-11-20T15:56:37;108.37;;;47.23;;
50010;SDS011;35899;50.352;19.390;2022-11-20T15:59:03;123.82;;;53.55;;
50010;SDS011;35899;50.352;19.390;2022-11-20T16:01:30;121.92;;;53.28;;
50010;SDS011;35899;50.352;19.390;2022-11-20T16:03:57;110.97;;;45.58;;
50010;SDS011;35899;50.352;19.390;2022-11-20T16:06:23;124.60;;;51.33;;
50010;SDS011;35899;50.352;19.390;2022-11-20T16:08:49;108.52;;;44.55;;
50010;SDS011;35899;50.352;19.390;2022-11-20T16:11:16;135.72;;;59.05;;